createdAt,value
2022-11-08T00:03:04.956Z,10.90
2022-11-08T00:08:26.020Z,10.50
2022-11-08T00:13:46.887Z,10.40
2022-11-08T00:18:49.547Z,9.90
2022-11-08T00:23:52.027Z,9.60
2022-11-08T00:28:54.986Z,9.30
2022-11-08T00:33:57.458Z,9.10
2022-11-08T00:38:59.877Z,8.90
2022-11-08T00:44:02.339Z,8.90
2022-11-08T00:49:06.063Z,8.70
2022-11-08T00:54:08.892Z,8.60
2022-11-08T00:59:13.017Z,8.60
2022-11-08T01:04:18.204Z,8.60
2022-11-08T01:09:20.732Z,8.40
2022-11-08T01:14:23.129Z,8.20
2022-11-08T01:19:25.544Z,8.10
2022-11-08T01:24:28.001Z,8.10
2022-11-08T01:29:30.545Z,8.20
2022-11-08T01:34:33.092Z,8.30
2022-11-08T01:39:35.481Z,8.20
2022-11-08T01:45:01.223Z,8.10
2022-11-08T01:50:06.111Z,8.00
2022-11-08T01:55:17.488Z,8.00
2022-11-08T02:00:20.218Z,8.00
2022-11-08T02:05:26.231Z,8.00
2022-11-08T02:10:40.039Z,8.00
2022-11-08T02:15:43.503Z,7.80
2022-11-08T02:21:14.814Z,7.70
2022-11-08T02:26:19.779Z,7.50
2022-11-08T02:31:22.385Z,7.50
2022-11-08T02:36:25.139Z,7.30
2022-11-08T02:41:27.619Z,7.30
2022-11-08T02:46:30.302Z,7.30
2022-11-08T02:51:32.786Z,7.20
2022-11-08T02:56:35.506Z,6.90
2022-11-08T03:01:38.185Z,6.80
2022-11-08T03:06:40.795Z,6.70
2022-11-08T03:11:43.360Z,6.60
2022-11-08T03:16:45.757Z,6.60
2022-11-08T03:21:48.248Z,6.40
2022-11-08T03:26:50.654Z,6.40
2022-11-08T03:31:53.054Z,6.20
2022-11-08T03:36:55.516Z,6.10
2022-11-08T03:42:00.879Z,6.00
2022-11-08T03:47:03.321Z,5.90
2022-11-08T03:52:05.721Z,5.70
2022-11-08T03:57:08.121Z,5.70
2022-11-08T04:02:10.712Z,5.60
2022-11-08T04:07:13.125Z,5.60
2022-11-08T04:12:34.108Z,5.60
2022-11-08T04:17:55.116Z,5.40
2022-11-08T04:22:57.785Z,5.60
2022-11-08T04:28:00.132Z,5.70
2022-11-08T04:33:04.230Z,5.60
2022-11-08T04:38:06.599Z,5.50
2022-11-08T04:43:09.188Z,5.50
2022-11-08T04:48:11.674Z,5.50
2022-11-08T04:53:14.154Z,5.50
2022-11-08T04:58:16.789Z,5.60
2022-11-08T05:03:19.366Z,5.40
2022-11-08T05:08:21.871Z,5.50
2022-11-08T05:13:24.315Z,5.50
2022-11-08T05:18:27.385Z,5.40
2022-11-08T05:23:30.012Z,5.30
2022-11-08T05:28:32.714Z,5.40
2022-11-08T05:33:35.779Z,5.60
2022-11-08T05:38:39.432Z,5.60
2022-11-08T05:43:43.680Z,5.60
2022-11-08T05:48:48.625Z,5.70
2022-11-08T05:53:51.141Z,5.60
2022-11-08T05:58:53.696Z,5.70
2022-11-08T06:03:56.225Z,5.60
2022-11-08T06:08:58.698Z,5.80
2022-11-08T06:14:01.150Z,5.70
2022-11-08T06:19:03.866Z,5.80
2022-11-08T06:24:06.791Z,6.00
2022-11-08T06:29:09.359Z,6.00
2022-11-08T06:34:12.290Z,6.00
2022-11-08T06:39:14.626Z,6.10
2022-11-08T06:44:17.141Z,5.90
2022-11-08T06:49:19.598Z,6.10
2022-11-08T06:54:25.783Z,6.20
2022-11-08T06:59:29.371Z,6.20
2022-11-08T07:04:31.785Z,6.20
2022-11-08T07:09:34.242Z,7.40
2022-11-08T07:14:36.722Z,6.70
2022-11-08T07:19:39.214Z,6.60
2022-11-08T07:24:41.599Z,7.00
2022-11-08T07:29:43.990Z,7.40
2022-11-08T07:34:46.670Z,7.50
2022-11-08T07:39:49.265Z,7.70
2022-11-08T07:44:51.871Z,7.80
2022-11-08T07:49:54.501Z,8.10
2022-11-08T07:54:57.040Z,8.50
2022-11-08T08:00:03.533Z,8.60
2022-11-08T08:05:14.365Z,8.80
2022-11-08T08:10:16.754Z,9.00
2022-11-08T08:15:19.366Z,9.20
2022-11-08T08:20:21.905Z,9.40
2022-11-08T08:25:25.226Z,9.60
2022-11-08T08:30:28.849Z,9.70
2022-11-08T08:40:34.539Z,10.20
2022-11-08T08:45:37.231Z,10.20
2022-11-08T08:50:39.806Z,10.40
2022-11-08T08:55:43.024Z,10.70
2022-11-08T09:06:08.846Z,11.20
2022-11-08T09:11:11.374Z,11.10
2022-11-08T09:16:14.681Z,11.70
2022-11-08T09:26:19.976Z,11.90
2022-11-08T09:31:22.491Z,11.80
2022-11-08T09:36:25.053Z,12.20
2022-11-08T09:46:53.900Z,13.80
2022-11-08T09:51:59.066Z,13.10
2022-11-08T09:57:05.468Z,12.50
2022-11-08T10:02:23.042Z,12.40
2022-11-08T10:07:32.147Z,12.80
2022-11-08T10:13:16.491Z,12.80
2022-11-08T10:18:58.317Z,12.80
2022-11-08T10:24:00.633Z,14.30
2022-11-08T10:29:15.730Z,13.70
2022-11-08T10:34:24.843Z,13.00
2022-11-08T10:44:31.565Z,12.80
2022-11-08T10:49:40.204Z,13.10
2022-11-08T10:54:47.779Z,13.20
2022-11-08T10:59:50.906Z,13.10
2022-11-08T11:05:13.163Z,13.40
2022-11-08T11:10:25.412Z,13.60
2022-11-08T11:15:36.988Z,13.30
2022-11-08T11:20:39.961Z,13.40
2022-11-08T11:25:51.524Z,13.40
2022-11-08T11:31:15.503Z,13.50
2022-11-08T11:36:22.089Z,13.40
2022-11-08T11:41:48.865Z,13.50
2022-11-08T11:47:06.633Z,13.50
2022-11-08T11:52:18.362Z,13.60
2022-11-08T11:57:23.779Z,13.90
2022-11-08T12:02:38.428Z,13.70
2022-11-08T12:08:13.272Z,13.80
2022-11-08T12:13:26.221Z,13.70
2022-11-08T12:18:43.701Z,13.80
2022-11-08T12:23:52.598Z,13.70
2022-11-08T12:29:16.866Z,13.70
2022-11-08T12:34:28.863Z,13.70
2022-11-08T12:40:05.368Z,13.60
2022-11-08T12:45:32.051Z,13.70
2022-11-08T12:51:00.312Z,13.60
2022-11-08T12:56:11.246Z,13.60
2022-11-08T13:01:16.858Z,13.60
2022-11-08T13:06:34.277Z,13.50
2022-11-08T13:11:41.585Z,13.50
2022-11-08T13:17:26.701Z,13.50
2022-11-08T13:22:29.236Z,13.40
2022-11-08T13:27:43.207Z,13.60
2022-11-08T13:33:04.106Z,13.40
2022-11-08T13:38:34.449Z,13.30
2022-11-08T13:43:36.983Z,13.40
2022-11-08T13:48:43.225Z,13.30
2022-11-08T13:53:49.915Z,13.10
2022-11-08T13:58:52.921Z,13.00
2022-11-08T14:03:58.056Z,12.80
2022-11-08T14:09:10.618Z,12.70
2022-11-08T14:14:28.929Z,12.70
2022-11-08T14:19:35.183Z,12.60
2022-11-08T14:24:38.917Z,12.50
2022-11-08T14:29:42.173Z,12.40
2022-11-08T14:34:45.298Z,12.30
2022-11-08T14:39:48.488Z,12.20
2022-11-08T14:44:56.295Z,12.60
2022-11-08T14:50:00.420Z,12.10
2022-11-08T14:55:09.370Z,11.70
2022-11-08T15:00:17.157Z,11.50
2022-11-08T15:05:31.963Z,11.20
2022-11-08T15:10:34.656Z,11.00
2022-11-08T15:15:37.456Z,10.80
2022-11-08T15:20:41.423Z,10.70
2022-11-08T15:25:43.892Z,10.50
2022-11-08T15:30:48.306Z,10.40
2022-11-08T15:35:51.029Z,10.10
2022-11-08T15:40:56.163Z,10.10
2022-11-08T15:46:00.599Z,9.90
2022-11-08T15:51:04.853Z,9.80
2022-11-08T15:56:07.625Z,9.60
2022-11-08T16:01:20.917Z,9.50
2022-11-08T16:06:23.563Z,9.40
2022-11-08T16:11:25.973Z,9.40
2022-11-08T16:16:32.676Z,9.30
2022-11-08T16:21:37.396Z,9.10
2022-11-08T16:26:42.747Z,9.00
2022-11-08T16:31:45.720Z,8.90
2022-11-08T16:36:49.835Z,8.90
2022-11-08T16:41:52.437Z,9.00
2022-11-08T16:46:55.213Z,10.00
2022-11-08T16:51:57.651Z,9.30
2022-11-08T16:57:28.674Z,9.10
2022-11-08T17:02:30.988Z,9.10
2022-11-08T17:07:34.371Z,9.20
2022-11-08T17:12:36.761Z,9.10
2022-11-08T17:17:40.040Z,9.10
2022-11-08T17:22:44.176Z,9.00
2022-11-08T17:27:47.581Z,9.10
2022-11-08T17:32:50.257Z,9.10
2022-11-08T17:37:53.774Z,9.10
2022-11-08T17:42:56.307Z,9.00
2022-11-08T17:47:58.867Z,8.90
2022-11-08T17:53:01.314Z,9.00
2022-11-08T17:58:03.945Z,9.10
2022-11-08T18:03:14.778Z,9.10
2022-11-08T18:08:18.209Z,9.10
2022-11-08T18:13:21.995Z,9.10
2022-11-08T18:18:24.662Z,9.10
2022-11-08T18:23:27.479Z,9.10
2022-11-08T18:28:30.744Z,9.10
2022-11-08T18:33:33.868Z,9.10
2022-11-08T18:38:40.504Z,9.10
2022-11-08T18:43:43.621Z,9.10
2022-11-08T18:48:46.497Z,9.00
2022-11-08T18:53:50.277Z,8.90
2022-11-08T18:58:54.365Z,8.90
2022-11-08T19:03:57.618Z,8.80
2022-11-08T19:09:00.924Z,8.80
2022-11-08T19:14:04.038Z,8.70
2022-11-08T19:19:06.952Z,9.40
2022-11-08T19:24:11.169Z,8.90
2022-11-08T19:29:14.461Z,8.80
2022-11-08T19:34:17.670Z,8.80
2022-11-08T19:39:21.079Z,8.90
2022-11-08T19:44:24.730Z,8.90
2022-11-08T19:49:28.831Z,9.50
2022-11-08T19:54:31.868Z,9.20
2022-11-08T19:59:34.999Z,8.70
2022-11-08T20:04:38.168Z,8.70
2022-11-08T20:09:41.379Z,8.50
2022-11-08T20:14:44.483Z,8.50
2022-11-08T20:19:47.251Z,8.20
2022-11-08T20:24:49.849Z,8.00
2022-11-08T20:29:52.341Z,7.90
2022-11-08T20:34:55.248Z,7.90
2022-11-08T20:39:57.876Z,7.70
2022-11-08T20:45:00.302Z,7.70
2022-11-08T20:50:02.785Z,7.60
2022-11-08T20:55:05.815Z,7.60
2022-11-08T21:00:13.430Z,7.60
2022-11-08T21:05:16.247Z,7.50
2022-11-08T21:15:46.419Z,7.50
2022-11-08T21:20:50.446Z,7.60
2022-11-08T21:25:53.219Z,7.60
2022-11-08T21:30:55.748Z,7.60
2022-11-08T21:35:59.224Z,7.70
2022-11-08T21:41:05.511Z,7.50
2022-11-08T21:46:25.711Z,7.60
2022-11-08T21:51:29.695Z,7.40
2022-11-08T21:56:34.562Z,7.30
2022-11-08T22:01:37.145Z,7.10
2022-11-08T22:06:42.579Z,7.00
2022-11-08T22:11:49.162Z,7.00
2022-11-08T22:16:51.744Z,7.00
2022-11-08T22:21:54.256Z,6.90
2022-11-08T22:26:57.003Z,6.80
2022-11-08T22:31:59.498Z,6.70
2022-11-08T22:37:02.087Z,6.60
2022-11-08T22:42:04.675Z,6.50
2022-11-08T22:47:07.372Z,6.50
2022-11-08T22:52:09.924Z,6.50
2022-11-08T22:57:12.355Z,6.60
2022-11-08T23:02:14.984Z,6.50
2022-11-08T23:07:17.569Z,6.60
2022-11-08T23:12:38.679Z,6.50
2022-11-08T23:17:41.218Z,6.50
2022-11-08T23:23:02.192Z,6.50
2022-11-08T23:28:23.114Z,6.40
2022-11-08T23:33:27.786Z,6.30
2022-11-08T23:38:30.478Z,6.30
2022-11-08T23:43:51.658Z,6.40
2022-11-08T23:48:54.235Z,6.30
2022-11-08T23:53:56.691Z,6.20
2022-11-08T23:59:00.244Z,6.10
